EST,Max TemperatureF,Mean TemperatureF,Min TemperatureF,Max Dew PointF,MeanDew PointF,Min DewpointF,Max Humidity, Mean Humidity, Min Humidity, Max Sea Level PressureIn, Mean Sea Level PressureIn, Min Sea Level PressureIn, Max VisibilityMiles, Mean VisibilityMiles, Min VisibilityMiles, Max Wind SpeedMPH, Mean Wind SpeedMPH, Max Gust SpeedMPH,PrecipitationIn, CloudCover, Events, WindDirDegrees
2013-11-1,60,52,44,59,44,38,94,81,71,29.67,29.47,29.15,10,10,6,28,16,41,0.05,8,Rain,251
2013-11-2,48,44,36,45,41,32,100,87,68,30.11,29.79,29.65,10,9,5,13,6,,0.16,8,Rain,316
2013-11-3,46,37,30,35,31,28,92,75,57,30.45,30.33,30.12,10,10,10,8,4,,0.00,4,,69
2013-11-4,48,39,30,34,30,27,96,70,43,30.48,30.40,30.32,10,10,10,14,6,22,0.00,0,,114
2013-11-5,54,44,35,47,42,31,89,81,71,30.37,30.31,30.18,10,10,9,8,3,,0.00,6,,192
2013-11-6,55,50,43,52,46,39,89,81,59,30.16,29.94,29.82,10,10,4,22,10,30,0.12,8,Rain,225
2013-11-7,44,40,34,38,31,23,93,71,45,30.15,30.09,29.98,10,10,7,21,11,29,0.02,6,Rain,303
2013-11-8,44,36,28,30,27,23,92,73,43,30.30,30.23,30.15,10,10,10,12,6,,0.00,3,,263
2013-11-9,55,45,35,39,34,29,79,60,47,30.18,29.94,29.81,10,10,10,23,10,33,0.00,4,,233
2013-11-10,48,38,28,36,28,24,88,62,46,30.28,30.14,29.92,10,10,10,24,12,32,0.00,5,,288
2013-11-11,44,36,28,38,30,19,93,81,67,30.32,30.14,30.02,10,7,1,18,9,25,0.14,7,Rain-Snow,312
2013-11-12,33,26,16,20,17,13,88,65,46,30.56,30.49,30.30,10,10,10,17,12,24,0.00,2,,322
2013-11-13,39,28,16,23,16,9,96,63,28,30.56,30.41,30.18,10,10,10,18,8,26,0.00,0,,233
2013-11-14,50,39,28,23,20,17,64,49,32,30.19,30.09,29.99,10,10,10,18,13,26,0.00,0,,221
2013-11-15,48,41,34,30,26,21,70,55,41,30.08,30.04,30.01,10,10,10,13,8,,0.00,2,,208
2013-11-16,57,42,28,52,40,27,93,83,67,30.11,30.01,29.81,10,9,5,14,5,23,0.00,6,,176
2013-11-17,63,56,46,61,55,39,100,88,65,29.79,29.53,29.26,10,8,1,36,14,59,0.81,8,Rain-Thunderstorm,202
2013-11-18,46,40,35,38,29,21,71,64,57,30.14,29.83,29.55,10,10,10,26,22,40,0.00,8,,282
2013-11-19,42,34,25,22,20,18,81,58,38,30.41,30.32,30.16,10,10,10,13,8,23,0.00,3,,339
2013-11-20,43,31,19,31,24,17,93,72,45,30.45,30.36,30.25,10,10,10,16,3,22,0.00,2,,139
2013-11-21,46,42,39,43,39,27,96,83,60,30.29,30.23,30.17,10,7,2,14,5,18,0.28,8,Rain,189
2013-11-22,46,36,26,45,38,22,100,88,67,30.38,30.21,30.13,10,6,1,20,5,28,0.06,7,Rain,308
2013-11-23,30,24,17,23,15,5,92,69,44,30.54,30.38,30.28,10,8,0,22,11,32,0.00,5,Snow,317
2013-11-24,25,18,10,14,8,6,84,66,45,30.62,30.55,30.45,10,10,10,16,10,21,0.00,2,,287
2013-11-25,30,24,18,25,16,9,93,68,49,30.43,30.21,30.10,10,9,1,18,12,28,0.00,5,Snow,227
2013-11-26,34,31,28,27,25,22,86,80,73,30.12,30.03,29.93,10,10,8,13,8,18,0.00,8,,242
2013-11-27,28,24,16,22,12,8,81,62,49,30.22,30.04,29.92,10,10,4,21,13,30,0.00,4,Snow,326
2013-11-28,28,22,15,19,16,9,88,76,56,30.44,30.31,30.23,10,8,0,13,5,,0.00,7,Fog-Snow,191
2013-11-29,33,22,12,21,16,8,92,73,45,30.67,30.60,30.45,10,10,8,7,1,,0.00,1,,158
2013-11-30,44,36,27,26,23,19,85,66,47,30.55,30.31,30.12,10,10,8,10,6,,0.00,2,,188